Time;durP1;ratioP1;P1;durP2;ratioP2;P2;SDS_P1;SDS_P2;PMS_P1;PMS_P2;Temp;Humidity;BMP_temperature;BMP_pressure;BME280_temperature;BME280_humidity;BME280_pressure;Samples;Min_cycle;Max_cycle;Signal;HPM_P1;HPM_P2
2023/05/04 00:00:44;;;;;;;5.18;3.30;;;;;;;24.39;40.00;100132.16;4346936;33;33544;-62
2023/05/04 00:03:12;;;;;;;5.60;3.22;;;;;;;24.39;39.99;100120.44;4346580;33;34818;-62
2023/05/04 00:05:40;;;;;;;4.43;2.90;;;;;;;24.39;39.98;100123.97;4346893;33;33869;-62
2023/05/04 00:08:07;;;;;;;4.90;3.00;;;;;;;24.39;39.98;100123.16;4346698;33;34010;-61
2023/05/04 00:10:35;;;;;;;6.35;3.30;;;;;;;24.38;39.97;100119.56;4346704;33;33470;-62
2023/05/04 00:13:02;;;;;;;5.45;3.22;;;;;;;24.39;40.02;100129.44;4346803;33;34807;-62
2023/05/04 00:15:30;;;;;;;3.67;2.62;;;;;;;24.38;40.08;100119.56;4347036;33;34040;-62
2023/05/04 00:17:58;;;;;;;6.53;3.15;;;;;;;24.37;40.07;100120.62;4346562;33;34565;-62
2023/05/04 00:20:25;;;;;;;5.12;3.05;;;;;;;24.37;40.04;100114.34;4346870;33;33376;-61
2023/05/04 00:22:53;;;;;;;7.87;3.00;;;;;;;24.36;40.04;100112.66;4346713;33;34090;-62
2023/05/04 00:25:20;;;;;;;5.22;3.20;;;;;;;24.35;40.05;100113.72;4346674;33;33724;-61
2023/05/04 00:27:48;;;;;;;8.55;3.62;;;;;;;24.36;40.05;100107.19;4346430;33;34947;-62
2023/05/04 00:30:15;;;;;;;5.80;3.45;;;;;;;24.35;40.04;100105.53;4346643;33;33860;-62
2023/05/04 00:32:43;;;;;;;5.78;3.10;;;;;;;24.32;40.07;100106.81;4346515;33;33992;-61
2023/05/04 00:35:11;;;;;;;5.40;3.00;;;;;;;24.33;40.08;100104.91;4346665;33;34082;-62
2023/05/04 00:37:38;;;;;;;8.98;3.45;;;;;;;24.32;40.08;100097.78;4346540;33;34323;-62
2023/05/04 00:40:07;;;;;;;5.30;3.20;;;;;;;24.32;40.08;100106.81;4346189;33;34450;-62
2023/05/04 00:42:35;;;;;;;6.03;3.45;;;;;;;24.30;40.11;100103.47;4346562;33;34079;-62
2023/05/04 00:45:02;;;;;;;5.18;2.87;;;;;;;24.31;40.10;100101.59;4346495;33;34676;-62
2023/05/04 00:47:30;;;;;;;4.78;2.85;;;;;;;24.30;40.19;100108.09;4345113;33;34204;-61
2023/05/04 00:49:57;;;;;;;7.10;3.28;;;;;;;24.30;40.22;100108.09;4346336;33;32594;-62
2023/05/04 00:52:25;;;;;;;4.72;3.08;;;;;;;24.29;40.21;100103.69;4333089;33;33733;-61
2023/05/04 00:54:53;;;;;;;6.35;2.95;;;;;;;24.28;40.22;100105.59;4321245;33;33656;-62
2023/05/04 00:57:21;;;;;;;6.05;3.00;;;;;;;24.28;40.20;100107.47;4346426;33;34041;-62
2023/05/04 00:59:48;;;;;;;4.43;2.75;;;;;;;24.27;40.18;100097.63;4332922;33;33659;-61
2023/05/04 01:02:16;;;;;;;5.20;3.10;;;;;;;24.26;40.18;100102.25;4346241;33;34958;-61
2023/05/04 01:04:44;;;;;;;4.93;2.87;;;;;;;24.27;40.26;100103.09;4346267;33;34031;-61
2023/05/04 01:07:17;;;;;;;6.10;3.17;;;;;;;24.26;40.25;100095.97;4346085;33;34278;-62
2023/05/04 01:09:51;;;;;;;4.90;2.97;;;;;;;24.24;40.26;100096.19;4333089;33;34483;-61
2023/05/04 01:12:22;;;;;;;6.00;2.95;;;;;;;24.24;40.21;100101.63;4346077;33;33835;-62
2023/05/04 01:14:50;;;;;;;5.95;2.95;;;;;;;24.23;40.17;100091.78;4332655;33;33583;-62
2023/05/04 01:17:18;;;;;;;5.32;2.95;;;;;;;24.25;40.20;100099.72;4320677;33;35014;-62
2023/05/04 01:19:46;;;;;;;4.50;3.15;;;;;;;24.24;40.19;100098.06;4346323;33;34447;-62
2023/05/04 01:22:14;;;;;;;4.00;2.83;;;;;;;24.23;40.20;100099.13;4345900;33;34919;-62
2023/05/04 01:24:41;;;;;;;5.05;3.05;;;;;;;24.24;40.20;100103.53;4346233;33;34084;-62
2023/05/04 01:27:14;;;;;;;5.10;2.80;;;;;;;24.23;40.22;100096.41;4346016;33;33944;-62
2023/05/04 01:29:48;;;;;;;4.62;2.95;;;;;;;24.22;40.21;100097.47;4332165;33;34161;-62
2023/05/04 01:32:16;;;;;;;4.72;3.00;;;;;;;24.21;40.23;100095.81;4332617;33;34507;-61
2023/05/04 01:34:44;;;;;;;4.55;2.87;;;;;;;24.21;40.22;100101.28;4320366;33;33657;-62
2023/05/04 01:37:11;;;;;;;4.90;2.90;;;;;;;24.21;40.31;100096.66;4332513;33;34037;-62
2023/05/04 01:39:38;;;;;;;4.43;2.78;;;;;;;24.19;40.28;100102.31;4345691;33;34642;-61
2023/05/04 01:42:06;;;;;;;5.47;3.35;;;;;;;24.19;40.32;100099.56;4345589;33;34759;-62
2023/05/04 01:44:34;;;;;;;6.18;2.97;;;;;;;24.19;40.19;100099.56;4345717;33;33893;-62
2023/05/04 01:47:01;;;;;;;5.80;2.92;;;;;;;24.19;40.14;100105.03;4332242;33;35036;-62
2023/05/04 01:49:29;;;;;;;4.60;3.10;;;;;;;24.18;40.10;100097.91;4345384;33;33602;-61
2023/05/04 01:51:56;;;;;;;5.05;3.00;;;;;;;24.18;40.09;100099.81;4332205;33;33833;-61
2023/05/04 01:54:24;;;;;;;4.65;2.53;;;;;;;24.17;40.08;100101.72;4345577;33;34037;-62
2023/05/04 01:56:52;;;;;;;5.32;3.00;;;;;;;24.16;40.10;100099.22;4345438;33;33990;-61
2023/05/04 01:59:19;;;;;;;5.53;2.83;;;;;;;24.17;40.12;100092.69;4347042;33;33248;-62
2023/05/04 02:01:46;;;;;;;6.75;3.62;;;;;;;24.16;40.10;100096.50;4347803;33;33771;-62
2023/05/04 02:04:14;;;;;;;6.28;3.22;;;;;;;24.15;40.06;100090.22;4347947;33;34950;-62
2023/05/04 02:06:42;;;;;;;4.60;3.00;;;;;;;24.14;40.08;100091.25;4347828;33;34337;-61
2023/05/04 02:09:09;;;;;;;7.65;3.30;;;;;;;24.13;40.10;100089.59;4347773;33;33339;-61
2023/05/04 02:11:37;;;;;;;4.43;2.92;;;;;;;24.14;40.05;100095.88;4347491;33;34847;-61
2023/05/04 02:14:04;;;;;;;3.95;2.90;;;;;;;24.14;40.04;100087.69;4347838;33;34899;-62
2023/05/04 02:16:32;;;;;;;4.07;2.97;;;;;;;24.12;40.04;100085.19;4347823;33;34206;-61
2023/05/04 02:19:00;;;;;;;4.95;3.20;;;;;;;24.12;40.02;100093.38;4347663;33;33860;-62
2023/05/04 02:21:28;;;;;;;4.40;2.80;;;;;;;24.11;40.00;100091.72;4347674;33;34919;-61
2023/05/04 02:23:55;;;;;;;4.15;2.92;;;;;;;24.12;39.98;100090.66;4347603;33;34007;-62
2023/05/04 02:26:25;;;;;;;4.97;3.12;;;;;;;24.10;40.00;100090.00;4347344;33;34341;-62
2023/05/04 02:28:53;;;;;;;5.78;3.22;;;;;;;24.10;40.03;100092.75;4347570;33;33638;-61
2023/05/04 02:31:20;;;;;;;6.20;3.58;;;;;;;24.10;40.00;100089.19;4347396;33;34727;-61
2023/05/04 02:33:49;;;;;;;5.45;3.15;;;;;;;24.10;39.97;100090.00;4347671;33;34190;-61
2023/05/04 02:36:16;;;;;;;3.90;2.62;;;;;;;24.10;39.99;100086.47;4347753;33;34399;-62
2023/05/04 02:38:44;;;;;;;4.47;3.22;;;;;;;24.10;40.04;100090.00;4347443;33;34399;-62
2023/05/04 02:41:12;;;;;;;5.85;3.08;;;;;;;24.10;40.03;100092.75;4347583;33;34115;-61
2023/05/04 02:43:39;;;;;;;4.57;2.75;;;;;;;24.09;39.94;100096.53;4347534;33;34796;-61
2023/05/04 02:46:07;;;;;;;5.20;3.40;;;;;;;24.10;39.98;100097.38;4347540;33;34793;-61
2023/05/04 02:48:34;;;;;;;4.60;3.05;;;;;;;24.08;40.02;100091.31;4333854;33;33340;-62
2023/05/04 02:51:02;;;;;;;5.75;3.28;;;;;;;24.08;40.04;100086.69;4347492;33;33684;-61
2023/05/04 02:53:29;;;;;;;5.37;3.28;;;;;;;24.07;40.02;100082.31;4347404;33;34531;-61
2023/05/04 02:55:57;;;;;;;4.35;3.05;;;;;;;24.06;40.02;100086.09;4347279;33;35051;-61
2023/05/04 02:58:24;;;;;;;5.47;3.70;;;;;;;24.07;39.98;100090.47;4347535;33;34364;-62
2023/05/04 03:00:54;;;;;;;4.90;3.15;;;;;;;24.06;39.95;100090.69;4347278;33;34029;-62
2023/05/04 03:03:21;;;;;;;5.37;3.30;;;;;;;24.07;39.89;100092.38;4334149;33;34880;-62
2023/05/04 03:05:49;;;;;;;5.03;3.25;;;;;;;24.07;39.94;100090.47;4347287;33;34214;-62
2023/05/04 03:08:17;;;;;;;5.40;3.10;;;;;;;24.07;39.98;100092.38;4353100;32;33657;-62
2023/05/04 03:10:44;;;;;;;5.12;3.35;;;;;;;24.05;39.97;100100.75;4361329;32;33596;-62
2023/05/04 03:13:12;;;;;;;6.55;3.10;;;;;;;24.05;39.99;100098.03;4362121;32;34573;-62
2023/05/04 03:15:40;;;;;;;4.78;3.28;;;;;;;24.05;40.00;100099.94;4362207;32;33847;-61
2023/05/04 03:18:08;;;;;;;4.45;2.95;;;;;;;24.05;40.02;100099.94;4362293;32;33872;-61
2023/05/04 03:20:36;;;;;;;5.10;3.53;;;;;;;24.03;40.00;100104.78;4362278;32;33913;-62
2023/05/04 03:23:04;;;;;;;5.75;3.80;;;;;;;24.02;39.94;100103.94;4362203;32;34863;-62
2023/05/04 03:25:32;;;;;;;5.53;3.30;;;;;;;24.02;39.93;100103.12;4362017;32;34113;-61
2023/05/04 03:27:59;;;;;;;6.28;3.60;;;;;;;24.01;39.85;100101.44;4362319;32;34585;-61
2023/05/04 03:30:27;;;;;;;5.50;3.58;;;;;;;24.00;39.85;100100.59;4361885;32;33429;-61
2023/05/04 03:32:55;;;;;;;5.32;3.30;;;;;;;23.99;39.85;100096.22;4362253;32;34014;-62
2023/05/04 03:35:23;;;;;;;5.82;3.42;;;;;;;24.00;39.86;100102.50;4362286;32;34246;-62
2023/05/04 03:37:53;;;;;;;5.55;3.30;;;;;;;24.00;39.80;100107.94;4362004;32;33545;-62
2023/05/04 03:40:21;;;;;;;5.75;3.65;;;;;;;24.00;39.75;100106.06;4350807;32;34697;-61
2023/05/04 03:42:51;;;;;;;5.33;3.93;;;;;;;23.99;39.72;100104.38;4347370;33;33599;-61
2023/05/04 03:45:20;;;;;;;4.28;2.67;;;;;;;24.01;39.75;100112.34;4346916;33;34820;-61
2023/05/04 03:47:47;;;;;;;6.03;3.03;;;;;;;24.00;39.78;100110.66;4346905;33;33700;-62
2023/05/04 03:50:15;;;;;;;4.50;3.10;;;;;;;23.98;39.83;100108.19;4346813;33;34474;-61
2023/05/04 03:52:42;;;;;;;5.85;3.40;;;;;;;23.99;39.87;100106.28;4346823;33;34056;-61
2023/05/04 03:55:10;;;;;;;5.60;3.67;;;;;;;23.98;39.85;100116.34;4347087;33;34016;-63
2023/05/04 03:57:40;;;;;;;5.50;3.60;;;;;;;23.98;39.79;100110.91;4333946;33;34652;-63
2023/05/04 04:00:08;;;;;;;7.62;3.55;;;;;;;23.98;39.79;100112.78;4346934;33;34560;-63
2023/05/04 04:02:40;;;;;;;5.32;3.58;;;;;;;23.98;39.82;100115.53;4346602;33;34838;-63
2023/05/04 04:05:09;;;;;;;6.07;3.20;;;;;;;23.98;39.84;100119.09;4347049;33;33565;-63
2023/05/04 04:07:37;;;;;;;4.70;3.10;;;;;;;23.98;39.94;100116.34;4347109;33;33570;-63
2023/05/04 04:10:05;;;;;;;4.68;2.67;;;;;;;23.98;39.98;100113.62;4346944;33;34711;-63
2023/05/04 04:12:33;;;;;;;5.53;2.75;;;;;;;23.99;40.00;100118.03;4346613;33;34795;-63
2023/05/04 04:15:01;;;;;;;4.25;2.55;;;;;;;23.99;39.99;100119.91;4346762;33;34337;-63
2023/05/04 04:17:28;;;;;;;4.40;2.58;;;;;;;23.99;39.99;100123.47;4346836;33;33542;-63
2023/05/04 04:19:56;;;;;;;3.65;2.60;;;;;;;23.98;39.98;100118.25;4346664;33;34088;-63
2023/05/04 04:22:23;;;;;;;6.43;3.00;;;;;;;23.98;39.97;100121.81;4346601;33;33891;-63
2023/05/04 04:24:51;;;;;;;4.05;2.65;;;;;;;23.99;39.95;100119.91;4346628;33;34892;-63
2023/05/04 04:27:19;;;;;;;6.53;2.97;;;;;;;23.98;39.88;100124.53;4346449;33;33733;-63
2023/05/04 04:29:46;;;;;;;5.62;2.62;;;;;;;23.99;39.93;100114.47;4346570;33;33647;-63
2023/05/04 04:32:14;;;;;;;5.00;2.90;;;;;;;23.98;39.94;100119.09;4346710;33;33590;-62
2023/05/04 04:34:42;;;;;;;3.58;2.15;;;;;;;23.99;39.96;100125.37;4346432;33;33813;-62
2023/05/04 04:37:10;;;;;;;5.43;2.53;;;;;;;23.99;40.07;100115.28;4346510;33;34278;-63
2023/05/04 04:39:38;;;;;;;5.00;2.35;;;;;;;24.00;40.03;100119.69;4346339;33;33942;-63
2023/05/04 04:42:06;;;;;;;5.10;2.40;;;;;;;24.01;40.25;100123.22;4333152;33;33413;-63
2023/05/04 04:44:33;;;;;;;4.72;2.00;;;;;;;24.01;40.24;100124.06;4346388;33;34039;-63
2023/05/04 04:47:01;;;;;;;4.30;2.17;;;;;;;24.02;40.26;100128.47;4346530;33;33941;-63
2023/05/04 04:49:29;;;;;;;6.75;2.10;;;;;;;24.02;40.36;100128.47;4346280;33;34503;-63
2023/05/04 04:51:56;;;;;;;7.75;2.22;;;;;;;24.04;40.44;100128.25;4346485;33;33657;-63
2023/05/04 04:54:24;;;;;;;4.70;2.55;;;;;;;24.02;40.58;100130.38;4346387;33;34349;-62
2023/05/04 04:56:52;;;;;;;4.35;1.95;;;;;;;24.03;40.66;100135.59;4346184;33;34410;-62
2023/05/04 04:59:23;;;;;;;5.70;2.17;;;;;;;24.04;40.60;100136.44;4346337;33;33996;-63
2023/05/04 05:01:50;;;;;;;5.05;2.28;;;;;;;24.03;40.50;100138.31;4346467;33;34086;-63
2023/05/04 05:04:18;;;;;;;4.60;2.10;;;;;;;24.03;40.64;100135.59;4346093;33;33892;-63
2023/05/04 05:06:46;;;;;;;5.00;2.35;;;;;;;24.04;40.77;100139.16;4345696;33;33394;-63
2023/05/04 05:09:14;;;;;;;3.05;1.92;;;;;;;24.04;40.70;100142.72;4346320;33;34012;-62
2023/05/04 05:11:41;;;;;;;3.45;2.15;;;;;;;24.04;40.67;100136.44;4345961;33;34703;-62
2023/05/04 05:14:09;;;;;;;4.43;2.03;;;;;;;24.04;40.63;100137.25;4346187;33;35125;-63
2023/05/04 05:16:36;;;;;;;5.28;2.22;;;;;;;24.04;40.67;100136.44;4346229;33;33588;-63
2023/05/04 05:19:04;;;;;;;3.85;2.17;;;;;;;24.04;40.60;100142.72;4345864;33;34712;-62
2023/05/04 05:21:32;;;;;;;4.65;2.33;;;;;;;24.03;40.69;100146.50;4346248;33;34029;-63
2023/05/04 05:24:00;;;;;;;3.97;2.00;;;;;;;24.04;40.73;100148.16;4332788;33;33950;-63
2023/05/04 05:26:28;;;;;;;3.95;2.00;;;;;;;24.04;40.78;100136.44;4345890;33;33558;-63
2023/05/04 05:28:55;;;;;;;4.57;2.22;;;;;;;24.04;40.79;100145.44;4345825;33;34833;-63
2023/05/04 05:31:23;;;;;;;3.00;2.00;;;;;;;24.04;40.72;100145.44;4345676;33;33999;-62
2023/05/04 05:33:51;;;;;;;3.42;2.25;;;;;;;24.04;40.67;100140.00;4344119;33;81577;-63
2023/05/04 05:36:18;;;;;;;2.78;1.83;;;;;;;24.04;40.71;100144.59;4348223;33;33446;-62
2023/05/04 05:38:46;;;;;;;4.35;1.62;;;;;;;24.03;40.72;100134.78;4347899;33;34886;-62
2023/05/04 05:41:16;;;;;;;3.70;2.37;;;;;;;24.04;40.81;100147.34;4347887;33;33812;-62
2023/05/04 05:43:44;;;;;;;3.03;1.70;;;;;;;24.04;40.77;100144.59;4348155;33;34361;-63
2023/05/04 05:46:12;;;;;;;5.62;2.25;;;;;;;24.03;40.78;100143.78;4347929;33;33699;-62
2023/05/04 05:48:40;;;;;;;6.45;2.05;;;;;;;24.04;40.84;100142.72;4347877;33;34040;-63
2023/05/04 05:51:07;;;;;;;2.97;2.03;;;;;;;24.05;40.82;100154.44;4347770;33;33878;-63
2023/05/04 05:53:35;;;;;;;3.47;1.77;;;;;;;24.04;40.82;100144.59;4347708;33;34102;-63
2023/05/04 05:56:02;;;;;;;3.92;1.90;;;;;;;24.05;40.81;100154.44;4347790;33;34505;-62
2023/05/04 05:58:30;;;;;;;3.33;1.92;;;;;;;24.04;40.90;100155.50;4348098;33;33836;-62
2023/05/04 06:00:57;;;;;;;3.20;2.00;;;;;;;24.04;40.92;100155.50;4347626;33;33506;-63
2023/05/04 06:03:25;;;;;;;3.75;1.90;;;;;;;24.04;40.82;100156.34;4334399;33;34221;-63
2023/05/04 06:05:53;;;;;;;2.50;1.80;;;;;;;24.05;40.94;100158.00;4347782;33;33952;-63
2023/05/04 06:08:20;;;;;;;3.47;1.83;;;;;;;24.04;40.90;100156.34;4347706;33;34057;-62
2023/05/04 06:10:50;;;;;;;3.58;1.75;;;;;;;24.04;40.93;100159.06;4347662;33;33895;-62
2023/05/04 06:13:17;;;;;;;3.67;2.10;;;;;;;24.05;40.91;100165.34;4347701;33;34150;-63
2023/05/04 06:15:54;;;;;;;3.67;1.90;;;;;;;24.06;40.89;100158.84;4347507;33;34535;-63
2023/05/04 06:18:21;;;;;;;5.20;2.10;;;;;;;24.05;40.92;100155.28;4347793;33;33850;-63
2023/05/04 06:20:49;;;;;;;3.35;2.08;;;;;;;24.05;40.94;100159.91;4347667;33;34153;-63
2023/05/04 06:23:16;;;;;;;3.03;1.75;;;;;;;24.04;40.97;100156.34;4322100;33;34227;-63
2023/05/04 06:25:44;;;;;;;3.85;1.90;;;;;;;24.05;40.94;100162.63;4347385;33;34784;-63
2023/05/04 06:28:12;;;;;;;3.42;1.60;;;;;;;24.05;40.95;100162.63;4347477;33;34099;-63
2023/05/04 06:30:39;;;;;;;3.67;2.03;;;;;;;24.05;40.92;100170.81;4347128;33;35186;-63
2023/05/04 06:33:07;;;;;;;4.90;2.17;;;;;;;24.04;40.92;100172.69;4334301;33;34900;-62
2023/05/04 06:35:34;;;;;;;5.20;1.80;;;;;;;24.04;40.89;100172.69;4347534;33;34201;-62
2023/05/04 06:38:02;;;;;;;3.62;2.25;;;;;;;24.04;40.92;100169.97;4347429;33;35011;-62
2023/05/04 06:40:30;;;;;;;3.28;1.83;;;;;;;24.05;40.91;100176.25;4347277;33;35035;-63
2023/05/04 06:42:57;;;;;;;3.30;1.80;;;;;;;24.04;40.90;100175.44;4347461;33;34184;-62
2023/05/04 06:45:25;;;;;;;3.60;2.00;;;;;;;24.04;40.91;100175.44;4346393;33;33619;-63
2023/05/04 06:47:53;;;;;;;3.45;2.20;;;;;;;24.04;40.97;100171.88;4347371;33;34021;-62
2023/05/04 06:50:22;;;;;;;3.40;1.90;;;;;;;24.04;40.91;100182.78;4347409;33;33650;-63
2023/05/04 06:52:50;;;;;;;3.40;2.05;;;;;;;24.04;40.91;100175.44;4347561;33;34151;-62
2023/05/04 06:55:18;;;;;;;3.75;1.80;;;;;;;24.05;40.89;100176.25;4347292;33;33736;-62
2023/05/04 06:57:46;;;;;;;2.85;1.67;;;;;;;24.04;40.90;100180.03;4347335;33;33893;-63
2023/05/04 07:00:13;;;;;;;3.47;1.70;;;;;;;24.04;40.85;100182.78;4347292;33;34011;-63
2023/05/04 07:02:41;;;;;;;3.80;2.08;;;;;;;24.05;40.85;100178.97;4347255;33;35001;-62
2023/05/04 07:05:09;;;;;;;2.85;1.90;;;;;;;24.04;40.88;100180.03;4347146;33;33812;-63
2023/05/04 07:07:36;;;;;;;4.97;2.35;;;;;;;24.04;40.84;100188.22;4347302;33;33916;-63
2023/05/04 07:10:04;;;;;;;4.10;2.00;;;;;;;24.03;40.82;100184.66;4347409;33;33943;-63
2023/05/04 07:12:32;;;;;;;5.95;2.10;;;;;;;24.04;40.80;100180.03;4333429;33;34342;-63
2023/05/04 07:15:00;;;;;;;2.87;1.80;;;;;;;24.04;40.80;100180.88;4347379;33;33811;-62
2023/05/04 07:17:31;;;;;;;2.62;1.80;;;;;;;24.04;40.70;100177.31;4347183;33;34011;-62
2023/05/04 07:20:00;;;;;;;4.97;1.90;;;;;;;24.03;40.69;100186.56;4347085;33;34815;-63
2023/05/04 07:22:28;;;;;;;4.55;2.35;;;;;;;24.02;40.71;100180.28;4347215;33;34334;-62
2023/05/04 07:24:59;;;;;;;3.83;1.75;;;;;;;24.03;40.66;100184.66;4347168;33;33683;-63
2023/05/04 07:27:27;;;;;;;6.00;1.95;;;;;;;24.02;40.73;100180.28;4347097;33;33730;-63
2023/05/04 07:29:55;;;;;;;3.25;1.85;;;;;;;24.04;40.77;100172.69;4346967;33;34689;-62
2023/05/04 07:32:22;;;;;;;5.82;2.12;;;;;;;24.04;40.85;100175.44;4347071;33;34131;-62
2023/05/04 07:34:50;;;;;;;4.22;2.00;;;;;;;24.04;40.93;100171.88;4333359;33;32932;-62
2023/05/04 07:37:18;;;;;;;3.10;1.70;;;;;;;24.04;40.97;100178.16;4344436;32;34017;-62
2023/05/04 07:39:45;;;;;;;4.07;1.83;;;;;;;24.06;41.02;100186.97;4361892;32;33990;-62
2023/05/04 07:42:13;;;;;;;3.60;1.87;;;;;;;24.06;41.00;100178.78;4361899;32;33959;-62
2023/05/04 07:44:40;;;;;;;4.18;2.15;;;;;;;24.06;41.07;100191.53;4351261;32;33665;-63
2023/05/04 07:47:08;;;;;;;7.40;1.90;;;;;;;24.06;41.11;100178.78;4339732;33;34787;-62
2023/05/04 07:49:36;;;;;;;4.15;2.00;;;;;;;24.07;41.14;100188.63;4332918;32;33792;-63
2023/05/04 07:52:03;;;;;;;5.07;2.25;;;;;;;24.08;41.19;100178.53;4349438;32;34000;-62
2023/05/04 07:54:31;;;;;;;3.92;1.80;;;;;;;24.10;41.23;100184.59;4362202;32;33536;-62
2023/05/04 07:57:02;;;;;;;4.45;2.20;;;;;;;24.08;41.27;100179.37;4361199;32;34428;-62
2023/05/04 07:59:29;;;;;;;5.30;2.03;;;;;;;24.08;41.34;100179.37;4357722;32;34744;-63
2023/05/04 08:01:57;;;;;;;5.20;2.10;;;;;;;24.08;41.37;100182.09;4345040;32;34323;-64
2023/05/04 08:04:25;;;;;;;4.37;2.08;;;;;;;24.09;41.40;100178.31;4361816;32;34593;-63
2023/05/04 08:06:53;;;;;;;6.10;2.12;;;;;;;24.09;41.42;100175.59;4351552;32;34815;-63
2023/05/04 08:09:20;;;;;;;5.18;2.28;;;;;;;24.10;41.45;100174.53;4346783;33;34011;-63
2023/05/04 08:11:48;;;;;;;5.97;2.45;;;;;;;24.10;41.46;100177.25;4346375;33;35133;-64
2023/05/04 08:14:15;;;;;;;5.28;2.30;;;;;;;24.11;41.53;100189.03;4346801;33;33584;-62
2023/05/04 08:16:43;;;;;;;5.35;2.30;;;;;;;24.12;41.53;100187.97;4346458;33;34928;-63
2023/05/04 08:19:11;;;;;;;3.83;2.25;;;;;;;24.11;41.57;100187.13;4340500;32;34014;-63
2023/05/04 08:21:39;;;;;;;7.00;2.50;;;;;;;24.11;41.58;100183.56;4337039;33;34218;-63
2023/05/04 08:24:06;;;;;;;5.55;2.00;;;;;;;24.11;41.64;100192.56;4342074;32;33660;-64
2023/05/04 08:26:37;;;;;;;6.62;2.45;;;;;;;24.12;41.63;100196.13;4330872;33;34789;-64
2023/05/04 08:29:09;;;;;;;7.85;2.50;;;;;;;24.11;41.66;100203.47;4341438;33;34910;-63
2023/05/04 08:31:38;;;;;;;5.75;2.20;;;;;;;24.12;41.66;100196.13;4360316;32;34235;-64
2023/05/04 08:34:06;;;;;;;7.00;2.55;;;;;;;24.12;41.67;100198.88;4357544;32;33867;-63
2023/05/04 08:36:33;;;;;;;5.28;2.10;;;;;;;24.13;41.67;100198.62;4346682;33;34706;-63
2023/05/04 08:39:01;;;;;;;6.78;2.10;;;;;;;24.12;41.72;100202.41;4331984;33;33891;-63
2023/05/04 08:41:29;;;;;;;5.62;2.60;;;;;;;24.13;41.71;100197.81;4331782;33;34961;-63
2023/05/04 08:43:57;;;;;;;3.12;1.70;;;;;;;24.12;41.67;100196.97;4327315;33;33322;-63
2023/05/04 08:46:29;;;;;;;3.85;2.05;;;;;;;24.13;41.72;100189.63;4335101;32;34184;-64
2023/05/04 08:48:57;;;;;;;5.95;2.35;;;;;;;24.13;41.72;100198.62;4318403;33;33640;-64
2023/05/04 08:51:25;;;;;;;3.67;1.90;;;;;;;24.13;41.68;100190.44;4340809;32;33730;-63
2023/05/04 08:53:52;;;;;;;4.05;2.33;;;;;;;24.14;41.70;100194.00;4359963;32;33526;-64
2023/05/04 08:56:19;;;;;;;7.28;2.65;;;;;;;24.13;41.68;100187.72;4319124;33;33990;-64
2023/05/04 08:58:49;;;;;;;5.78;2.30;;;;;;;24.13;41.71;100185.00;4328597;33;34829;-64
2023/05/04 09:01:17;;;;;;;7.50;2.08;;;;;;;24.14;41.67;100192.13;4337022;32;34215;-63
2023/05/04 09:03:45;;;;;;;5.37;2.17;;;;;;;24.14;41.62;100186.66;4334936;32;33415;-64
2023/05/04 09:06:13;;;;;;;5.15;2.03;;;;;;;24.15;41.53;100188.34;4346088;33;34673;-64
2023/05/04 09:08:41;;;;;;;4.07;2.20;;;;;;;24.15;41.46;100190.22;4343275;32;34162;-64
2023/05/04 09:11:08;;;;;;;7.60;2.60;;;;;;;24.15;41.40;100185.63;4338902;32;33434;-64
2023/05/04 09:13:37;;;;;;;6.50;2.53;;;;;;;24.15;41.34;100188.34;4340919;32;33678;-64
2023/05/04 09:16:06;;;;;;;4.65;2.70;;;;;;;24.15;41.27;100188.34;4348202;33;33956;-64
2023/05/04 09:18:44;;;;;;;6.93;2.05;;;;;;;24.15;41.25;100182.03;4347132;33;34796;-63
2023/05/04 09:21:12;;;;;;;5.85;2.15;;;;;;;24.15;41.19;100191.09;4350327;32;34131;-63
2023/05/04 09:23:52;;;;;;;4.28;2.20;;;;;;;24.15;41.13;100182.91;4354258;32;34953;-63
2023/05/04 09:26:27;;;;;;;4.28;2.22;;;;;;;24.16;41.02;100184.56;4358147;32;34055;-63
2023/05/04 09:28:55;;;;;;;7.00;2.67;;;;;;;24.15;40.96;100182.91;4320396;33;34998;-64
2023/05/04 09:31:25;;;;;;;6.25;2.55;;;;;;;24.15;40.96;100184.78;4333633;33;33627;-64
2023/05/04 09:33:53;;;;;;;6.97;2.60;;;;;;;24.14;40.95;100185.81;4329966;33;34594;-64
2023/05/04 09:36:21;;;;;;;12.82;3.00;;;;;;;24.13;40.94;100190.44;4338396;32;33645;-64
2023/05/04 09:38:49;;;;;;;7.22;2.87;;;;;;;24.14;40.92;100186.66;4334541;33;34932;-64
2023/05/04 09:41:17;;;;;;;10.15;3.12;;;;;;;24.13;40.88;100182.28;4328657;33;34301;-63
2023/05/04 09:43:45;;;;;;;12.13;3.10;;;;;;;24.14;40.83;100183.94;4336090;32;34532;-65
2023/05/04 09:46:16;;;;;;;5.10;2.67;;;;;;;24.14;40.79;100183.94;4347128;32;33568;-64
2023/05/04 09:48:56;;;;;;;10.00;3.20;;;;;;;24.13;40.78;100182.28;4322979;32;34022;-64
2023/05/04 09:51:25;;;;;;;7.53;2.90;;;;;;;24.15;40.72;100180.19;4347024;32;34374;-64
2023/05/04 09:53:53;;;;;;;7.18;2.85;;;;;;;24.14;40.70;100167.56;4346573;32;33475;-64
2023/05/04 09:56:31;;;;;;;10.25;2.85;;;;;;;24.14;40.68;100175.75;4347782;33;34709;-64
2023/05/04 09:58:59;;;;;;;5.80;2.35;;;;;;;24.14;40.65;100173.03;4347025;32;34683;-64
2023/05/04 10:01:29;;;;;;;8.25;2.78;;;;;;;24.13;40.65;100170.53;4347694;33;34044;-64
2023/05/04 10:03:57;;;;;;;6.87;2.72;;;;;;;24.13;40.65;100165.91;4333819;33;33555;-64
2023/05/04 10:06:26;;;;;;;6.15;2.35;;;;;;;24.13;40.58;100167.81;4346560;32;35204;-63
2023/05/04 10:08:55;;;;;;;8.18;2.90;;;;;;;24.13;40.56;100174.09;4328467;33;34174;-64
2023/05/04 10:11:24;;;;;;;6.23;2.50;;;;;;;24.13;40.52;100159.63;4347476;33;33883;-64
2023/05/04 10:13:53;;;;;;;8.60;2.30;;;;;;;24.14;40.49;100162.13;4347109;32;33454;-64
2023/05/04 10:16:36;;;;;;;6.80;2.78;;;;;;;24.12;40.47;100160.69;4334326;33;34834;-64
2023/05/04 10:19:31;;;;;;;7.80;2.70;;;;;;;24.14;40.42;100153.13;4341691;32;34706;-63
2023/05/04 10:22:31;;;;;;;7.82;2.90;;;;;;;24.12;40.40;100158.81;4334005;33;34925;-64
2023/05/04 10:25:20;;;;;;;9.05;2.90;;;;;;;24.15;40.37;100155.63;4325543;32;33223;-63
2023/05/04 10:28:06;;;;;;;5.47;2.50;;;;;;;24.12;40.38;100144.34;4332871;33;33742;-63
2023/05/04 10:30:34;;;;;;;8.25;2.47;;;;;;;24.10;40.38;100147.25;4334464;33;35012;-63
2023/05/04 10:33:01;;;;;;;7.18;2.45;;;;;;;24.11;40.37;100148.97;4329176;33;34203;-63
2023/05/04 10:35:30;;;;;;;8.32;3.00;;;;;;;24.11;40.38;100153.59;4346267;33;34524;-63
2023/05/04 10:37:58;;;;;;;7.45;2.87;;;;;;;24.09;40.37;100140.16;4346082;33;33853;-64
2023/05/04 10:40:36;;;;;;;5.55;2.60;;;;;;;24.09;40.34;100145.59;4333011;33;33343;-63
2023/05/04 10:43:05;;;;;;;6.75;2.75;;;;;;;24.11;40.32;100145.41;4349879;32;34789;-63
2023/05/04 10:45:34;;;;;;;7.53;3.00;;;;;;;24.09;40.30;100137.44;4353698;32;34527;-63
2023/05/04 10:48:03;;;;;;;6.40;2.87;;;;;;;24.10;40.28;100138.25;4347468;33;33965;-64
2023/05/04 10:50:42;;;;;;;6.53;2.90;;;;;;;24.12;40.27;100141.63;4342362;32;34732;-63
2023/05/04 10:53:10;;;;;;;10.57;3.20;;;;;;;24.12;40.25;100138.87;4345837;33;33843;-63
2023/05/04 10:55:42;;;;;;;6.28;2.67;;;;;;;24.08;40.28;100130.31;4345876;33;33591;-63
2023/05/04 10:58:10;;;;;;;6.70;2.90;;;;;;;24.10;40.28;100130.91;4347873;32;33666;-65
2023/05/04 11:00:39;;;;;;;6.35;2.83;;;;;;;24.10;40.26;100127.34;4344177;32;33895;-64
2023/05/04 11:03:07;;;;;;;7.37;2.73;;;;;;;24.09;40.25;100118.34;4368885;27;34178;-63
2023/05/04 11:05:51;;;;;;;5.32;2.53;;;;;;;24.10;40.18;100117.28;4347058;32;34543;-64
2023/05/04 11:08:23;;;;;;;8.60;3.33;;;;;;;24.11;40.18;100109.97;4346436;32;34059;-64
2023/05/04 11:11:05;;;;;;;9.10;3.10;;;;;;;24.10;40.13;100116.44;4346257;32;34469;-63
2023/05/04 11:13:33;;;;;;;6.37;2.85;;;;;;;24.11;40.06;100112.69;4346386;32;33727;-64
2023/05/04 11:16:01;;;;;;;4.70;3.00;;;;;;;24.09;40.00;100104.72;4349134;32;33816;-64
2023/05/04 11:18:30;;;;;;;4.22;2.70;;;;;;;24.09;39.95;100107.44;4361311;32;33958;-63
2023/05/04 11:20:58;;;;;;;5.50;2.90;;;;;;;24.09;39.91;100101.97;4360608;32;34561;-65
2023/05/04 11:23:26;;;;;;;5.68;2.70;;;;;;;24.11;39.83;100099.88;4361125;32;34245;-64
2023/05/04 11:25:53;;;;;;;5.37;3.42;;;;;;;24.10;39.85;100102.81;4361758;32;34386;-64
2023/05/04 11:28:32;;;;;;;4.65;2.60;;;;;;;24.09;39.88;100095.69;4361156;32;34026;-63
2023/05/04 11:30:59;;;;;;;4.75;2.90;;;;;;;24.10;39.84;100092.75;4359846;32;34044;-64